sensor_id;sensor_type;location;lat;lon;timestamp;temperature;humidity
9125;DHT22;4597;48.730;9.114;2022-11-18T00:00:50;8.90;99.90
9125;DHT22;4597;48.730;9.114;2022-11-18T00:03:16;8.90;99.90
9125;DHT22;4597;48.730;9.114;2022-11-18T00:05:41;8.90;99.90
9125;DHT22;4597;48.730;9.114;2022-11-18T00:08:07;8.90;99.90
9125;DHT22;4597;48.730;9.114;2022-11-18T00:10:35;8.90;99.90
9125;DHT22;4597;48.730;9.114;2022-11-18T00:13:01;8.90;99.90
9125;DHT22;4597;48.730;9.114;2022-11-18T00:15:45;8.90;99.90
9125;DHT22;4597;48.730;9.114;2022-11-18T00:18:10;9.00;99.90
9125;DHT22;4597;48.730;9.114;2022-11-18T00:20:36;8.90;99.90
9125;DHT22;4597;48.730;9.114;2022-11-18T00:23:01;8.90;99.90
9125;DHT22;4597;48.730;9.114;2022-11-18T00:25:27;8.90;99.90
9125;DHT22;4597;48.730;9.114;2022-11-18T00:27:53;8.90;99.90
9125;DHT22;4597;48.730;9.114;2022-11-18T00:30:19;8.80;99.90
9125;DHT22;4597;48.730;9.114;2022-11-18T00:32:44;8.80;99.90
9125;DHT22;4597;48.730;9.114;2022-11-18T00:35:10;8.80;99.90
9125;DHT22;4597;48.730;9.114;2022-11-18T00:37:35;8.80;99.90
9125;DHT22;4597;48.730;9.114;2022-11-18T00:40:01;8.80;99.90
9125;DHT22;4597;48.730;9.114;2022-11-18T00:42:26;8.90;99.90
9125;DHT22;4597;48.730;9.114;2022-11-18T00:45:10;8.90;99.90
9125;DHT22;4597;48.730;9.114;2022-11-18T00:47:36;8.90;99.90
9125;DHT22;4597;48.730;9.114;2022-11-18T00:50:01;8.90;99.90
9125;DHT22;4597;48.730;9.114;2022-11-18T00:52:27;9.00;99.90
9125;DHT22;4597;48.730;9.114;2022-11-18T00:54:53;9.00;99.90
9125;DHT22;4597;48.730;9.114;2022-11-18T00:57:18;9.00;99.90
9125;DHT22;4597;48.730;9.114;2022-11-18T00:59:44;9.00;99.90
9125;DHT22;4597;48.730;9.114;2022-11-18T01:02:09;9.00;99.90
9125;DHT22;4597;48.730;9.114;2022-11-18T01:04:35;9.00;99.90
9125;DHT22;4597;48.730;9.114;2022-11-18T01:07:00;9.00;99.90
9125;DHT22;4597;48.730;9.114;2022-11-18T01:09:26;8.90;99.90
9125;DHT22;4597;48.730;9.114;2022-11-18T01:11:51;8.90;99.90
9125;DHT22;4597;48.730;9.114;2022-11-18T01:14:46;9.00;99.90
9125;DHT22;4597;48.730;9.114;2022-11-18T01:17:11;9.00;99.90
9125;DHT22;4597;48.730;9.114;2022-11-18T01:19:37;9.00;99.90
9125;DHT22;4597;48.730;9.114;2022-11-18T01:22:02;9.00;99.90
9125;DHT22;4597;48.730;9.114;2022-11-18T01:24:30;9.00;99.90
9125;DHT22;4597;48.730;9.114;2022-11-18T01:26:56;9.00;99.90
9125;DHT22;4597;48.730;9.114;2022-11-18T01:29:21;9.00;99.90
9125;DHT22;4597;48.730;9.114;2022-11-18T01:31:47;9.00;99.90
9125;DHT22;4597;48.730;9.114;2022-11-18T01:34:12;9.00;99.90
9125;DHT22;4597;48.730;9.114;2022-11-18T01:36:38;9.00;99.90
9125;DHT22;4597;48.730;9.114;2022-11-18T01:39:04;9.00;99.90
9125;DHT22;4597;48.730;9.114;2022-11-18T01:41:29;9.00;99.90
9125;DHT22;4597;48.730;9.114;2022-11-18T01:43:58;9.00;99.90
9125;DHT22;4597;48.730;9.114;2022-11-18T01:46:26;9.00;99.90
9125;DHT22;4597;48.730;9.114;2022-11-18T01:48:55;9.00;99.90
9125;DHT22;4597;48.730;9.114;2022-11-18T01:51:26;8.90;99.90
9125;DHT22;4597;48.730;9.114;2022-11-18T01:53:57;8.80;99.90
9125;DHT22;4597;48.730;9.114;2022-11-18T01:56:29;8.80;99.90
9125;DHT22;4597;48.730;9.114;2022-11-18T01:59:05;8.80;99.90
9125;DHT22;4597;48.730;9.114;2022-11-18T02:01:33;8.90;99.90
9125;DHT22;4597;48.730;9.114;2022-11-18T02:03:58;8.90;99.90
9125;DHT22;4597;48.730;9.114;2022-11-18T02:06:24;8.90;99.90
9125;DHT22;4597;48.730;9.114;2022-11-18T02:08:50;8.90;99.90
9125;DHT22;4597;48.730;9.114;2022-11-18T02:11:16;8.90;99.90
9125;DHT22;4597;48.730;9.114;2022-11-18T02:14:05;8.90;99.90
9125;DHT22;4597;48.730;9.114;2022-11-18T02:25:25;8.70;99.90
9125;DHT22;4597;48.730;9.114;2022-11-18T02:30:48;8.50;99.90
9125;DHT22;4597;48.730;9.114;2022-11-18T02:33:21;8.60;99.90
9125;DHT22;4597;48.730;9.114;2022-11-18T02:36:00;8.60;99.90
9125;DHT22;4597;48.730;9.114;2022-11-18T02:38:37;8.80;99.90
9125;DHT22;4597;48.730;9.114;2022-11-18T02:41:08;8.80;99.90
9125;DHT22;4597;48.730;9.114;2022-11-18T02:43:39;8.80;99.90
9125;DHT22;4597;48.730;9.114;2022-11-18T02:46:10;8.80;99.90
9125;DHT22;4597;48.730;9.114;2022-11-18T02:48:40;8.80;99.90
9125;DHT22;4597;48.730;9.114;2022-11-18T02:51:09;8.90;99.90
9125;DHT22;4597;48.730;9.114;2022-11-18T02:53:38;8.90;99.90
9125;DHT22;4597;48.730;9.114;2022-11-18T02:56:05;8.80;99.90
9125;DHT22;4597;48.730;9.114;2022-11-18T02:58:31;8.80;99.90
9125;DHT22;4597;48.730;9.114;2022-11-18T03:00:59;8.80;99.90
9125;DHT22;4597;48.730;9.114;2022-11-18T03:03:34;8.70;99.90
9125;DHT22;4597;48.730;9.114;2022-11-18T03:08:46;8.80;99.90
9125;DHT22;4597;48.730;9.114;2022-11-18T03:11:17;8.70;99.90
9125;DHT22;4597;48.730;9.114;2022-11-18T03:16:39;8.60;99.90
9125;DHT22;4597;48.730;9.114;2022-11-18T03:21:46;8.60;99.90
9125;DHT22;4597;48.730;9.114;2022-11-18T03:24:20;8.60;99.90
9125;DHT22;4597;48.730;9.114;2022-11-18T03:26:50;8.60;99.90
9125;DHT22;4597;48.730;9.114;2022-11-18T03:29:27;8.60;99.90
9125;DHT22;4597;48.730;9.114;2022-11-18T03:31:58;8.60;99.90
9125;DHT22;4597;48.730;9.114;2022-11-18T03:34:41;8.60;99.90
9125;DHT22;4597;48.730;9.114;2022-11-18T03:37:12;8.60;99.90
9125;DHT22;4597;48.730;9.114;2022-11-18T03:39:41;8.60;99.90
9125;DHT22;4597;48.730;9.114;2022-11-18T03:42:14;8.50;99.90
9125;DHT22;4597;48.730;9.114;2022-11-18T03:44:47;8.60;99.90
9125;DHT22;4597;48.730;9.114;2022-11-18T03:47:25;8.50;99.90
9125;DHT22;4597;48.730;9.114;2022-11-18T03:50:00;8.60;99.90
9125;DHT22;4597;48.730;9.114;2022-11-18T03:52:29;8.50;99.90
9125;DHT22;4597;48.730;9.114;2022-11-18T03:54:58;8.50;99.90
9125;DHT22;4597;48.730;9.114;2022-11-18T03:57:37;8.50;99.90
9125;DHT22;4597;48.730;9.114;2022-11-18T04:00:09;8.50;99.90
9125;DHT22;4597;48.730;9.114;2022-11-18T04:02:36;8.50;99.90
9125;DHT22;4597;48.730;9.114;2022-11-18T04:05:04;8.40;99.90
9125;DHT22;4597;48.730;9.114;2022-11-18T04:10:52;8.30;99.90
9125;DHT22;4597;48.730;9.114;2022-11-18T04:13:24;8.30;99.90
9125;DHT22;4597;48.730;9.114;2022-11-18T04:15:53;8.40;99.90
9125;DHT22;4597;48.730;9.114;2022-11-18T04:18:19;8.40;99.90
9125;DHT22;4597;48.730;9.114;2022-11-18T04:20:44;8.40;99.90
9125;DHT22;4597;48.730;9.114;2022-11-18T04:23:10;8.40;99.90
9125;DHT22;4597;48.730;9.114;2022-11-18T04:25:36;8.40;99.90
9125;DHT22;4597;48.730;9.114;2022-11-18T04:28:02;8.40;99.90
9125;DHT22;4597;48.730;9.114;2022-11-18T04:30:28;8.40;99.90
9125;DHT22;4597;48.730;9.114;2022-11-18T04:32:53;8.40;99.90
9125;DHT22;4597;48.730;9.114;2022-11-18T04:35:19;8.40;99.90
9125;DHT22;4597;48.730;9.114;2022-11-18T04:37:45;8.30;99.90
9125;DHT22;4597;48.730;9.114;2022-11-18T04:40:10;8.30;99.90
9125;DHT22;4597;48.730;9.114;2022-11-18T04:42:36;8.20;99.90
9125;DHT22;4597;48.730;9.114;2022-11-18T04:45:02;8.20;99.90
9125;DHT22;4597;48.730;9.114;2022-11-18T04:47:28;8.20;99.90
9125;DHT22;4597;48.730;9.114;2022-11-18T04:49:53;8.20;99.90
9125;DHT22;4597;48.730;9.114;2022-11-18T04:52:19;8.10;99.90
9125;DHT22;4597;48.730;9.114;2022-11-18T04:54:45;8.10;99.90
9125;DHT22;4597;48.730;9.114;2022-11-18T04:57:11;8.10;99.90
9125;DHT22;4597;48.730;9.114;2022-11-18T04:59:36;8.10;99.90
9125;DHT22;4597;48.730;9.114;2022-11-18T05:02:02;8.10;99.90
9125;DHT22;4597;48.730;9.114;2022-11-18T05:04:29;8.10;99.90
9125;DHT22;4597;48.730;9.114;2022-11-18T05:06:56;8.10;99.90
9125;DHT22;4597;48.730;9.114;2022-11-18T05:09:21;8.00;99.90
9125;DHT22;4597;48.730;9.114;2022-11-18T05:11:47;8.10;99.90
9125;DHT22;4597;48.730;9.114;2022-11-18T05:14:32;8.10;99.90
9125;DHT22;4597;48.730;9.114;2022-11-18T05:17:01;8.20;99.90
9125;DHT22;4597;48.730;9.114;2022-11-18T05:19:27;8.10;99.90
9125;DHT22;4597;48.730;9.114;2022-11-18T05:21:53;8.10;99.90
9125;DHT22;4597;48.730;9.114;2022-11-18T05:24:19;8.10;99.90
9125;DHT22;4597;48.730;9.114;2022-11-18T05:26:45;8.10;99.90
9125;DHT22;4597;48.730;9.114;2022-11-18T05:29:10;8.20;99.90
9125;DHT22;4597;48.730;9.114;2022-11-18T05:31:37;8.20;99.90
9125;DHT22;4597;48.730;9.114;2022-11-18T05:34:02;8.10;99.90
9125;DHT22;4597;48.730;9.114;2022-11-18T05:36:28;8.10;99.90
9125;DHT22;4597;48.730;9.114;2022-11-18T05:38:53;8.10;99.90
9125;DHT22;4597;48.730;9.114;2022-11-18T05:41:19;8.10;99.90
9125;DHT22;4597;48.730;9.114;2022-11-18T05:44:04;8.10;99.90
9125;DHT22;4597;48.730;9.114;2022-11-18T05:46:30;8.20;99.90
9125;DHT22;4597;48.730;9.114;2022-11-18T05:48:56;8.20;99.90
9125;DHT22;4597;48.730;9.114;2022-11-18T05:51:22;8.20;99.90
9125;DHT22;4597;48.730;9.114;2022-11-18T05:53:49;8.20;99.90
9125;DHT22;4597;48.730;9.114;2022-11-18T05:56:23;8.20;99.90
9125;DHT22;4597;48.730;9.114;2022-11-18T05:58:49;8.20;99.90
9125;DHT22;4597;48.730;9.114;2022-11-18T06:01:19;8.10;99.90
9125;DHT22;4597;48.730;9.114;2022-11-18T06:03:46;8.10;99.90
9125;DHT22;4597;48.730;9.114;2022-11-18T06:06:13;8.00;99.90
9125;DHT22;4597;48.730;9.114;2022-11-18T06:08:45;7.90;99.90
9125;DHT22;4597;48.730;9.114;2022-11-18T06:11:14;7.90;99.90
9125;DHT22;4597;48.730;9.114;2022-11-18T06:14:28;7.90;99.90
9125;DHT22;4597;48.730;9.114;2022-11-18T06:16:36;7.90;99.90
9125;DHT22;4597;48.730;9.114;2022-11-18T06:19:03;7.90;99.90
9125;DHT22;4597;48.730;9.114;2022-11-18T06:21:29;7.90;99.90
9125;DHT22;4597;48.730;9.114;2022-11-18T06:23:55;7.90;99.90
9125;DHT22;4597;48.730;9.114;2022-11-18T06:26:20;7.80;99.90
9125;DHT22;4597;48.730;9.114;2022-11-18T06:28:47;7.80;99.90
9125;DHT22;4597;48.730;9.114;2022-11-18T06:31:13;7.80;99.90
9125;DHT22;4597;48.730;9.114;2022-11-18T06:33:41;7.80;99.90
9125;DHT22;4597;48.730;9.114;2022-11-18T06:36:07;7.80;99.90
9125;DHT22;4597;48.730;9.114;2022-11-18T06:38:32;7.80;99.90
9125;DHT22;4597;48.730;9.114;2022-11-18T06:40:59;7.80;99.90
9125;DHT22;4597;48.730;9.114;2022-11-18T06:43:25;7.80;99.90
9125;DHT22;4597;48.730;9.114;2022-11-18T06:46:05;7.80;99.90
9125;DHT22;4597;48.730;9.114;2022-11-18T06:48:50;7.80;99.90
9125;DHT22;4597;48.730;9.114;2022-11-18T06:51:16;7.80;99.90
9125;DHT22;4597;48.730;9.114;2022-11-18T06:53:42;7.80;99.90
9125;DHT22;4597;48.730;9.114;2022-11-18T06:56:10;7.80;99.90
9125;DHT22;4597;48.730;9.114;2022-11-18T06:58:37;7.80;99.90
9125;DHT22;4597;48.730;9.114;2022-11-18T07:01:29;7.80;99.90
9125;DHT22;4597;48.730;9.114;2022-11-18T07:03:57;7.80;99.90
9125;DHT22;4597;48.730;9.114;2022-11-18T07:06:25;7.80;99.90
9125;DHT22;4597;48.730;9.114;2022-11-18T07:08:51;7.80;99.90
9125;DHT22;4597;48.730;9.114;2022-11-18T07:11:19;7.80;99.90
9125;DHT22;4597;48.730;9.114;2022-11-18T07:13:46;7.90;99.90
9125;DHT22;4597;48.730;9.114;2022-11-18T07:16:14;8.00;99.90
9125;DHT22;4597;48.730;9.114;2022-11-18T07:18:40;7.90;99.90
9125;DHT22;4597;48.730;9.114;2022-11-18T07:21:09;7.90;99.90
9125;DHT22;4597;48.730;9.114;2022-11-18T07:23:35;7.90;99.90
9125;DHT22;4597;48.730;9.114;2022-11-18T07:26:01;8.00;99.90
9125;DHT22;4597;48.730;9.114;2022-11-18T07:28:27;8.00;99.90
9125;DHT22;4597;48.730;9.114;2022-11-18T07:31:04;8.00;99.90
9125;DHT22;4597;48.730;9.114;2022-11-18T07:33:30;8.00;99.90
9125;DHT22;4597;48.730;9.114;2022-11-18T07:36:04;8.00;99.90
9125;DHT22;4597;48.730;9.114;2022-11-18T07:38:30;8.10;99.90
9125;DHT22;4597;48.730;9.114;2022-11-18T07:41:02;8.10;99.90
9125;DHT22;4597;48.730;9.114;2022-11-18T07:43:28;8.20;99.90
9125;DHT22;4597;48.730;9.114;2022-11-18T07:45:53;8.10;99.90
9125;DHT22;4597;48.730;9.114;2022-11-18T07:48:19;8.10;99.90
9125;DHT22;4597;48.730;9.114;2022-11-18T07:50:45;8.10;99.90
9125;DHT22;4597;48.730;9.114;2022-11-18T07:53:10;8.10;99.90
9125;DHT22;4597;48.730;9.114;2022-11-18T07:55:36;8.20;99.90
9125;DHT22;4597;48.730;9.114;2022-11-18T07:58:01;8.20;99.90
9125;DHT22;4597;48.730;9.114;2022-11-18T08:00:27;8.20;99.90
9125;DHT22;4597;48.730;9.114;2022-11-18T08:02:53;8.20;99.90
9125;DHT22;4597;48.730;9.114;2022-11-18T08:05:18;8.20;99.90
9125;DHT22;4597;48.730;9.114;2022-11-18T08:07:44;8.30;99.90
9125;DHT22;4597;48.730;9.114;2022-11-18T08:10:09;8.30;99.90
9125;DHT22;4597;48.730;9.114;2022-11-18T08:12:35;8.30;99.90
9125;DHT22;4597;48.730;9.114;2022-11-18T08:15:00;8.30;99.90
9125;DHT22;4597;48.730;9.114;2022-11-18T08:17:26;8.30;99.90
9125;DHT22;4597;48.730;9.114;2022-11-18T08:19:51;8.30;99.90
9125;DHT22;4597;48.730;9.114;2022-11-18T08:22:17;8.30;99.90
9125;DHT22;4597;48.730;9.114;2022-11-18T08:24:45;8.30;99.90
9125;DHT22;4597;48.730;9.114;2022-11-18T08:27:12;8.40;99.90
9125;DHT22;4597;48.730;9.114;2022-11-18T08:29:37;8.50;99.90
9125;DHT22;4597;48.730;9.114;2022-11-18T08:32:03;8.50;99.90
9125;DHT22;4597;48.730;9.114;2022-11-18T08:34:29;8.50;99.90
9125;DHT22;4597;48.730;9.114;2022-11-18T08:36:55;8.60;99.90
9125;DHT22;4597;48.730;9.114;2022-11-18T08:39:20;8.70;99.90
9125;DHT22;4597;48.730;9.114;2022-11-18T08:41:46;8.70;99.90
9125;DHT22;4597;48.730;9.114;2022-11-18T08:44:13;8.80;99.90
9125;DHT22;4597;48.730;9.114;2022-11-18T08:46:40;8.80;99.90
9125;DHT22;4597;48.730;9.114;2022-11-18T08:49:06;8.90;99.90
9125;DHT22;4597;48.730;9.114;2022-11-18T08:51:31;8.90;99.90
9125;DHT22;4597;48.730;9.114;2022-11-18T08:53:57;8.80;99.90
9125;DHT22;4597;48.730;9.114;2022-11-18T08:56:23;8.90;99.90
9125;DHT22;4597;48.730;9.114;2022-11-18T08:58:50;8.90;99.90
9125;DHT22;4597;48.730;9.114;2022-11-18T09:01:15;8.80;99.90
9125;DHT22;4597;48.730;9.114;2022-11-18T09:03:41;8.70;99.90
9125;DHT22;4597;48.730;9.114;2022-11-18T09:06:18;8.70;99.90
9125;DHT22;4597;48.730;9.114;2022-11-18T09:08:44;8.70;99.90
9125;DHT22;4597;48.730;9.114;2022-11-18T09:11:12;8.70;99.90
9125;DHT22;4597;48.730;9.114;2022-11-18T09:13:39;8.70;99.90
9125;DHT22;4597;48.730;9.114;2022-11-18T09:16:05;8.70;99.90
9125;DHT22;4597;48.730;9.114;2022-11-18T09:18:31;8.70;99.90
9125;DHT22;4597;48.730;9.114;2022-11-18T09:21:03;8.70;99.90
9125;DHT22;4597;48.730;9.114;2022-11-18T09:23:30;8.70;99.90
9125;DHT22;4597;48.730;9.114;2022-11-18T09:26:04;8.70;99.90
9125;DHT22;4597;48.730;9.114;2022-11-18T09:28:31;8.70;99.90
9125;DHT22;4597;48.730;9.114;2022-11-18T09:30:56;8.70;99.90
9125;DHT22;4597;48.730;9.114;2022-11-18T09:33:22;8.70;99.90
9125;DHT22;4597;48.730;9.114;2022-11-18T09:35:48;8.70;99.90
9125;DHT22;4597;48.730;9.114;2022-11-18T09:38:14;8.80;99.90
9125;DHT22;4597;48.730;9.114;2022-11-18T09:40:50;8.80;99.90
9125;DHT22;4597;48.730;9.114;2022-11-18T09:43:35;8.80;99.90
9125;DHT22;4597;48.730;9.114;2022-11-18T09:46:16;8.70;99.90
9125;DHT22;4597;48.730;9.114;2022-11-18T09:48:45;8.60;99.90
9125;DHT22;4597;48.730;9.114;2022-11-18T09:51:33;8.70;99.90
9125;DHT22;4597;48.730;9.114;2022-11-18T09:54:00;8.80;99.90
9125;DHT22;4597;48.730;9.114;2022-11-18T09:56:26;8.80;99.90
9125;DHT22;4597;48.730;9.114;2022-11-18T09:58:52;8.90;99.90
9125;DHT22;4597;48.730;9.114;2022-11-18T10:01:19;9.00;99.90
9125;DHT22;4597;48.730;9.114;2022-11-18T10:03:45;9.10;99.90
9125;DHT22;4597;48.730;9.114;2022-11-18T10:06:25;9.10;99.90
9125;DHT22;4597;48.730;9.114;2022-11-18T10:14:29;9.30;99.90
9125;DHT22;4597;48.730;9.114;2022-11-18T10:17:15;9.30;99.90
9125;DHT22;4597;48.730;9.114;2022-11-18T10:19:52;9.40;99.90
9125;DHT22;4597;48.730;9.114;2022-11-18T10:25:14;9.40;99.90
9125;DHT22;4597;48.730;9.114;2022-11-18T10:27:43;9.50;99.90
9125;DHT22;4597;48.730;9.114;2022-11-18T10:30:13;9.40;99.90
9125;DHT22;4597;48.730;9.114;2022-11-18T10:33:03;9.50;99.90
9125;DHT22;4597;48.730;9.114;2022-11-18T10:35:41;9.50;99.90
9125;DHT22;4597;48.730;9.114;2022-11-18T10:38:19;9.40;99.90
9125;DHT22;4597;48.730;9.114;2022-11-18T10:43:51;9.50;99.90
9125;DHT22;4597;48.730;9.114;2022-11-18T10:46:35;9.40;99.90
9125;DHT22;4597;48.730;9.114;2022-11-18T10:49:11;9.50;99.90
9125;DHT22;4597;48.730;9.114;2022-11-18T10:51:40;9.40;99.90
9125;DHT22;4597;48.730;9.114;2022-11-18T10:54:22;9.40;99.90
9125;DHT22;4597;48.730;9.114;2022-11-18T10:59:50;9.40;99.90
9125;DHT22;4597;48.730;9.114;2022-11-18T11:02:17;9.40;99.90
9125;DHT22;4597;48.730;9.114;2022-11-18T11:04:44;9.50;99.90
9125;DHT22;4597;48.730;9.114;2022-11-18T11:07:28;9.40;99.90
9125;DHT22;4597;48.730;9.114;2022-11-18T11:12:33;9.50;99.90
9125;DHT22;4597;48.730;9.114;2022-11-18T11:15:08;9.70;99.90
9125;DHT22;4597;48.730;9.114;2022-11-18T11:17:37;9.80;99.90
9125;DHT22;4597;48.730;9.114;2022-11-18T11:20:21;10.00;99.90
9125;DHT22;4597;48.730;9.114;2022-11-18T11:22:47;10.20;99.90
9125;DHT22;4597;48.730;9.114;2022-11-18T11:28:21;10.30;99.90
9125;DHT22;4597;48.730;9.114;2022-11-18T11:33:56;10.10;99.90
9125;DHT22;4597;48.730;9.114;2022-11-18T11:36:26;10.00;99.90
9125;DHT22;4597;48.730;9.114;2022-11-18T11:39:12;10.10;99.90
9125;DHT22;4597;48.730;9.114;2022-11-18T11:42:07;10.20;99.90
9125;DHT22;4597;48.730;9.114;2022-11-18T11:56:41;10.20;99.90
9125;DHT22;4597;48.730;9.114;2022-11-18T11:59:19;10.20;99.90
9125;DHT22;4597;48.730;9.114;2022-11-18T12:04:41;10.30;99.90
9125;DHT22;4597;48.730;9.114;2022-11-18T12:07:14;10.30;99.90
9125;DHT22;4597;48.730;9.114;2022-11-18T12:10:03;10.30;99.90
9125;DHT22;4597;48.730;9.114;2022-11-18T12:12:44;10.40;99.90
9125;DHT22;4597;48.730;9.114;2022-11-18T12:15:24;10.30;99.90
9125;DHT22;4597;48.730;9.114;2022-11-18T12:20:51;10.40;99.90
9125;DHT22;4597;48.730;9.114;2022-11-18T12:33:52;10.20;99.90
9125;DHT22;4597;48.730;9.114;2022-11-18T12:36:30;10.20;99.90
9125;DHT22;4597;48.730;9.114;2022-11-18T12:38:58;10.20;99.90
9125;DHT22;4597;48.730;9.114;2022-11-18T12:41:51;10.30;99.90
9125;DHT22;4597;48.730;9.114;2022-11-18T12:44:35;10.30;99.90
9125;DHT22;4597;48.730;9.114;2022-11-18T12:47:09;10.20;99.90
9125;DHT22;4597;48.730;9.114;2022-11-18T12:52:02;10.20;99.90
9125;DHT22;4597;48.730;9.114;2022-11-18T12:54:37;10.20;99.90
9125;DHT22;4597;48.730;9.114;2022-11-18T12:57:12;10.20;99.90
9125;DHT22;4597;48.730;9.114;2022-11-18T12:59:39;10.40;99.90
9125;DHT22;4597;48.730;9.114;2022-11-18T13:02:26;10.50;99.90
9125;DHT22;4597;48.730;9.114;2022-11-18T13:05:10;10.50;99.90
9125;DHT22;4597;48.730;9.114;2022-11-18T13:08:01;10.30;99.90
9125;DHT22;4597;48.730;9.114;2022-11-18T13:10:50;10.50;99.90
9125;DHT22;4597;48.730;9.114;2022-11-18T13:15:54;10.90;99.90
9125;DHT22;4597;48.730;9.114;2022-11-18T13:18:53;11.00;99.90
9125;DHT22;4597;48.730;9.114;2022-11-18T13:21:27;11.30;99.90
9125;DHT22;4597;48.730;9.114;2022-11-18T13:24:17;11.70;99.90
9125;DHT22;4597;48.730;9.114;2022-11-18T13:26:45;12.10;99.90
9125;DHT22;4597;48.730;9.114;2022-11-18T13:32:23;12.40;99.90
9125;DHT22;4597;48.730;9.114;2022-11-18T13:34:55;12.20;99.90
9125;DHT22;4597;48.730;9.114;2022-11-18T13:37:27;12.00;99.90
9125;DHT22;4597;48.730;9.114;2022-11-18T13:39:53;11.80;99.90
9125;DHT22;4597;48.730;9.114;2022-11-18T13:45:11;11.50;99.90
9125;DHT22;4597;48.730;9.114;2022-11-18T13:47:44;11.60;99.90
9125;DHT22;4597;48.730;9.114;2022-11-18T13:53:00;11.20;99.90
9125;DHT22;4597;48.730;9.114;2022-11-18T13:55:30;11.10;99.90
9125;DHT22;4597;48.730;9.114;2022-11-18T14:00:42;11.20;99.90
9125;DHT22;4597;48.730;9.114;2022-11-18T14:03:27;11.10;99.90
9125;DHT22;4597;48.730;9.114;2022-11-18T14:05:55;10.80;99.90
9125;DHT22;4597;48.730;9.114;2022-11-18T14:08:32;10.60;99.90
9125;DHT22;4597;48.730;9.114;2022-11-18T14:10:59;10.40;99.90
9125;DHT22;4597;48.730;9.114;2022-11-18T14:13:26;10.30;99.90
9125;DHT22;4597;48.730;9.114;2022-11-18T14:15:54;10.70;99.90
9125;DHT22;4597;48.730;9.114;2022-11-18T14:18:29;10.70;99.90
9125;DHT22;4597;48.730;9.114;2022-11-18T14:20:56;10.80;99.90
9125;DHT22;4597;48.730;9.114;2022-11-18T14:23:33;10.80;99.90
9125;DHT22;4597;48.730;9.114;2022-11-18T14:26:01;10.70;99.90
9125;DHT22;4597;48.730;9.114;2022-11-18T14:28:30;10.70;99.90
9125;DHT22;4597;48.730;9.114;2022-11-18T14:31:23;10.60;99.90
9125;DHT22;4597;48.730;9.114;2022-11-18T14:36:39;10.50;99.90
9125;DHT22;4597;48.730;9.114;2022-11-18T14:39:28;10.30;99.90
9125;DHT22;4597;48.730;9.114;2022-11-18T14:41:55;10.20;99.90
9125;DHT22;4597;48.730;9.114;2022-11-18T14:44:22;10.10;99.90
9125;DHT22;4597;48.730;9.114;2022-11-18T14:46:54;10.10;99.90
9125;DHT22;4597;48.730;9.114;2022-11-18T14:49:23;10.00;99.90
9125;DHT22;4597;48.730;9.114;2022-11-18T14:51:50;10.00;99.90
9125;DHT22;4597;48.730;9.114;2022-11-18T14:54:17;10.00;99.90
9125;DHT22;4597;48.730;9.114;2022-11-18T14:56:44;10.00;99.90
9125;DHT22;4597;48.730;9.114;2022-11-18T14:59:12;10.00;99.90
9125;DHT22;4597;48.730;9.114;2022-11-18T15:01:39;10.00;99.90
9125;DHT22;4597;48.730;9.114;2022-11-18T15:04:06;10.00;99.90
9125;DHT22;4597;48.730;9.114;2022-11-18T15:06:32;9.90;99.90
9125;DHT22;4597;48.730;9.114;2022-11-18T15:08:57;9.90;99.90
9125;DHT22;4597;48.730;9.114;2022-11-18T15:11:23;9.90;99.90
9125;DHT22;4597;48.730;9.114;2022-11-18T15:13:49;9.90;99.90
9125;DHT22;4597;48.730;9.114;2022-11-18T15:16:20;9.90;99.90
9125;DHT22;4597;48.730;9.114;2022-11-18T15:18:49;9.70;99.90
9125;DHT22;4597;48.730;9.114;2022-11-18T15:21:15;9.70;99.90
9125;DHT22;4597;48.730;9.114;2022-11-18T15:23:41;9.60;99.90
9125;DHT22;4597;48.730;9.114;2022-11-18T15:26:24;9.60;99.90
9125;DHT22;4597;48.730;9.114;2022-11-18T15:28:51;9.50;99.90
9125;DHT22;4597;48.730;9.114;2022-11-18T15:31:18;9.40;99.90
9125;DHT22;4597;48.730;9.114;2022-11-18T15:33:44;9.50;99.90
9125;DHT22;4597;48.730;9.114;2022-11-18T15:36:15;9.40;99.90
9125;DHT22;4597;48.730;9.114;2022-11-18T15:38:41;9.30;99.90
9125;DHT22;4597;48.730;9.114;2022-11-18T15:41:19;9.10;99.90
9125;DHT22;4597;48.730;9.114;2022-11-18T15:43:46;9.00;99.90
9125;DHT22;4597;48.730;9.114;2022-11-18T15:46:12;9.10;99.90
9125;DHT22;4597;48.730;9.114;2022-11-18T15:48:38;9.10;99.90
9125;DHT22;4597;48.730;9.114;2022-11-18T15:51:04;9.00;99.90
9125;DHT22;4597;48.730;9.114;2022-11-18T15:53:30;9.00;99.90
9125;DHT22;4597;48.730;9.114;2022-11-18T15:56:14;8.90;99.90
9125;DHT22;4597;48.730;9.114;2022-11-18T15:58:40;9.00;99.90
9125;DHT22;4597;48.730;9.114;2022-11-18T16:01:06;9.00;99.90
9125;DHT22;4597;48.730;9.114;2022-11-18T16:03:33;9.00;99.90
9125;DHT22;4597;48.730;9.114;2022-11-18T16:05:59;8.90;99.90
9125;DHT22;4597;48.730;9.114;2022-11-18T16:08:24;8.90;99.90
9125;DHT22;4597;48.730;9.114;2022-11-18T16:10:59;8.90;99.90
9125;DHT22;4597;48.730;9.114;2022-11-18T16:13:43;8.80;99.90
9125;DHT22;4597;48.730;9.114;2022-11-18T16:16:22;8.80;99.90
9125;DHT22;4597;48.730;9.114;2022-11-18T16:18:56;8.80;99.90
9125;DHT22;4597;48.730;9.114;2022-11-18T16:21:22;8.80;99.90
9125;DHT22;4597;48.730;9.114;2022-11-18T16:23:48;8.70;99.90
9125;DHT22;4597;48.730;9.114;2022-11-18T16:26:14;8.70;99.90
9125;DHT22;4597;48.730;9.114;2022-11-18T16:28:39;8.70;99.90
9125;DHT22;4597;48.730;9.114;2022-11-18T16:31:06;8.70;99.90
9125;DHT22;4597;48.730;9.114;2022-11-18T16:33:50;8.60;99.90
9125;DHT22;4597;48.730;9.114;2022-11-18T16:36:16;8.50;99.90
9125;DHT22;4597;48.730;9.114;2022-11-18T16:38:41;8.50;99.90
9125;DHT22;4597;48.730;9.114;2022-11-18T16:41:08;8.40;99.90
9125;DHT22;4597;48.730;9.114;2022-11-18T16:43:53;8.40;99.90
9125;DHT22;4597;48.730;9.114;2022-11-18T16:46:19;8.40;99.90
9125;DHT22;4597;48.730;9.114;2022-11-18T16:48:44;8.30;99.90
9125;DHT22;4597;48.730;9.114;2022-11-18T16:51:22;8.30;99.90
9125;DHT22;4597;48.730;9.114;2022-11-18T16:53:56;8.30;99.90
9125;DHT22;4597;48.730;9.114;2022-11-18T16:56:27;8.30;99.90
9125;DHT22;4597;48.730;9.114;2022-11-18T16:59:00;8.30;99.90
9125;DHT22;4597;48.730;9.114;2022-11-18T17:01:26;8.30;99.90
9125;DHT22;4597;48.730;9.114;2022-11-18T17:03:53;8.20;99.90
9125;DHT22;4597;48.730;9.114;2022-11-18T17:06:20;8.20;99.90
9125;DHT22;4597;48.730;9.114;2022-11-18T17:08:46;8.10;99.90
9125;DHT22;4597;48.730;9.114;2022-11-18T17:11:11;8.10;99.90
9125;DHT22;4597;48.730;9.114;2022-11-18T17:13:38;8.10;99.90
9125;DHT22;4597;48.730;9.114;2022-11-18T17:16:09;8.00;99.90
9125;DHT22;4597;48.730;9.114;2022-11-18T17:18:35;8.00;99.90
9125;DHT22;4597;48.730;9.114;2022-11-18T17:21:05;8.00;99.90
9125;DHT22;4597;48.730;9.114;2022-11-18T17:23:32;8.00;99.90
9125;DHT22;4597;48.730;9.114;2022-11-18T17:25:58;8.00;99.90
9125;DHT22;4597;48.730;9.114;2022-11-18T17:28:23;8.00;99.90
9125;DHT22;4597;48.730;9.114;2022-11-18T17:30:49;7.90;99.90
9125;DHT22;4597;48.730;9.114;2022-11-18T17:33:15;7.90;99.90
9125;DHT22;4597;48.730;9.114;2022-11-18T17:35:41;7.90;99.90
9125;DHT22;4597;48.730;9.114;2022-11-18T17:38:06;8.00;99.90
9125;DHT22;4597;48.730;9.114;2022-11-18T17:40:33;8.00;99.90
9125;DHT22;4597;48.730;9.114;2022-11-18T17:42:59;8.00;99.90
9125;DHT22;4597;48.730;9.114;2022-11-18T17:45:24;8.00;99.90
9125;DHT22;4597;48.730;9.114;2022-11-18T17:47:49;8.00;99.90
9125;DHT22;4597;48.730;9.114;2022-11-18T17:50:15;8.00;99.90
9125;DHT22;4597;48.730;9.114;2022-11-18T17:52:41;7.90;99.90
9125;DHT22;4597;48.730;9.114;2022-11-18T17:55:07;7.90;99.90
9125;DHT22;4597;48.730;9.114;2022-11-18T17:57:33;7.80;99.90
9125;DHT22;4597;48.730;9.114;2022-11-18T17:59:58;7.80;99.90
9125;DHT22;4597;48.730;9.114;2022-11-18T18:02:24;7.80;99.90
9125;DHT22;4597;48.730;9.114;2022-11-18T18:04:49;7.80;99.90